createdAt,value
2022-12-08T00:03:59.402Z,8.00
2022-12-08T00:09:27.049Z,18.87
2022-12-08T00:14:42.955Z,11.80
2022-12-08T00:19:50.775Z,13.00
2022-12-08T00:24:57.985Z,12.87
2022-12-08T00:30:05.892Z,9.77
2022-12-08T00:35:12.730Z,12.20
2022-12-08T00:40:19.950Z,10.90
2022-12-08T00:45:28.248Z,11.57
2022-12-08T00:50:36.879Z,11.03
2022-12-08T00:55:44.645Z,16.17
2022-12-08T01:00:53.671Z,23.10
2022-12-08T01:06:06.550Z,16.67
2022-12-08T01:11:19.836Z,17.80
2022-12-08T01:16:33.940Z,11.75
2022-12-08T01:21:41.300Z,9.37
2022-12-08T01:26:49.402Z,10.37
2022-12-08T01:31:57.356Z,12.53
2022-12-08T01:37:05.254Z,10.33
2022-12-08T01:42:21.144Z,12.33
2022-12-08T01:47:32.567Z,16.30
2022-12-08T01:52:55.306Z,15.30
2022-12-08T01:58:07.051Z,14.87
2022-12-08T02:03:22.218Z,10.50
2022-12-08T02:08:30.480Z,10.67
2022-12-08T02:13:37.640Z,24.77
2022-12-08T02:19:14.757Z,13.13
2022-12-08T02:24:13.279Z,12.00
2022-12-08T02:29:33.439Z,13.47
2022-12-08T02:35:17.687Z,10.53
2022-12-08T02:40:53.801Z,16.53
2022-12-08T02:46:04.571Z,11.33
2022-12-08T02:51:12.854Z,10.80
2022-12-08T02:56:44.759Z,11.73
2022-12-08T03:02:07.650Z,11.17
2022-12-08T03:07:28.013Z,10.30
2022-12-08T03:12:57.244Z,10.30
2022-12-08T03:18:05.536Z,9.40
2022-12-08T03:23:16.142Z,8.13
2022-12-08T03:28:22.925Z,11.60
2022-12-08T03:33:33.332Z,11.40
2022-12-08T03:38:50.694Z,11.43
2022-12-08T03:43:59.789Z,9.63
2022-12-08T03:49:07.911Z,9.37
2022-12-08T03:54:17.473Z,9.13
2022-12-08T03:59:27.168Z,14.03
2022-12-08T04:04:34.013Z,10.13
2022-12-08T04:09:42.001Z,19.90
2022-12-08T04:14:49.536Z,29.67
2022-12-08T04:19:56.473Z,19.57
2022-12-08T04:25:03.299Z,17.23
2022-12-08T04:30:14.016Z,20.13
2022-12-08T04:35:20.952Z,19.00
2022-12-08T04:40:29.166Z,14.10
2022-12-08T04:45:37.992Z,14.93
2022-12-08T04:50:46.882Z,14.43
2022-12-08T04:55:53.665Z,52.40
2022-12-08T05:01:00.544Z,20.60
2022-12-08T05:06:08.161Z,16.90
2022-12-08T05:11:17.770Z,17.77
2022-12-08T05:16:25.665Z,16.73
2022-12-08T05:21:32.669Z,13.93
2022-12-08T05:26:39.892Z,15.43
2022-12-08T05:31:46.987Z,15.40
2022-12-08T05:36:56.120Z,13.53
2022-12-08T05:42:03.163Z,13.93
2022-12-08T05:47:09.825Z,13.07
2022-12-08T05:52:18.139Z,14.93
2022-12-08T05:57:26.509Z,13.40
2022-12-08T06:02:41.885Z,14.03
2022-12-08T06:07:48.905Z,13.57
2022-12-08T06:12:57.409Z,14.23
2022-12-08T06:18:04.540Z,13.73
2022-12-08T06:23:11.779Z,14.33
2022-12-08T06:28:20.506Z,14.90
2022-12-08T06:33:30.626Z,17.43
2022-12-08T06:38:42.962Z,19.60
2022-12-08T06:43:46.609Z,16.13
2022-12-08T06:48:53.396Z,12.47
2022-12-08T06:54:00.645Z,13.57
2022-12-08T06:59:08.814Z,14.30
2022-12-08T07:04:17.780Z,13.00
2022-12-08T07:09:26.105Z,15.77
2022-12-08T07:14:34.287Z,16.57
2022-12-08T07:19:42.795Z,15.87
2022-12-08T07:24:49.782Z,16.13
2022-12-08T07:29:59.305Z,19.77
2022-12-08T07:35:08.570Z,15.20
2022-12-08T07:40:19.927Z,25.33
2022-12-08T07:45:31.502Z,26.43
2022-12-08T07:50:38.803Z,44.33
2022-12-08T07:55:47.580Z,22.47
2022-12-08T08:00:55.015Z,17.10
2022-12-08T08:06:09.371Z,22.47
2022-12-08T08:11:20.848Z,23.37
2022-12-08T08:16:25.418Z,30.07
2022-12-08T08:21:45.365Z,40.03
2022-12-08T08:26:42.316Z,57.07
2022-12-08T08:31:49.018Z,49.80
2022-12-08T08:36:55.890Z,48.27
2022-12-08T08:42:02.809Z,24.17
2022-12-08T08:47:12.786Z,27.40
2022-12-08T08:52:19.546Z,22.07
2022-12-08T08:57:32.190Z,23.03
2022-12-08T09:02:45.754Z,33.63
2022-12-08T09:07:52.522Z,28.90
2022-12-08T09:12:59.400Z,20.60
2022-12-08T09:18:07.987Z,16.43
2022-12-08T09:23:16.739Z,18.93
2022-12-08T09:28:26.854Z,16.20
2022-12-08T09:33:34.216Z,15.20
2022-12-08T09:38:42.012Z,17.73
2022-12-08T09:44:12.064Z,28.00
2022-12-08T09:49:22.752Z,22.73
2022-12-08T09:54:38.334Z,15.90
2022-12-08T09:59:49.802Z,19.20
2022-12-08T10:05:01.320Z,18.33
2022-12-08T10:10:30.730Z,15.90
2022-12-08T10:16:19.052Z,19.40
2022-12-08T10:21:24.951Z,16.47
2022-12-08T10:26:33.333Z,14.50
2022-12-08T10:31:40.184Z,16.50
2022-12-08T10:37:01.449Z,15.67
2022-12-08T10:42:22.850Z,15.50
2022-12-08T10:47:32.515Z,15.87
2022-12-08T10:52:43.517Z,18.60
2022-12-08T10:57:53.298Z,20.07
2022-12-08T11:03:12.865Z,18.43
2022-12-08T11:08:19.944Z,19.03
2022-12-08T11:13:30.351Z,19.67
2022-12-08T11:18:48.682Z,23.43
2022-12-08T11:23:55.596Z,19.90
2022-12-08T11:29:05.618Z,20.77
2022-12-08T11:34:17.083Z,18.10
2022-12-08T11:39:27.976Z,16.53
2022-12-08T11:45:05.020Z,17.67
2022-12-08T11:50:30.731Z,17.93
2022-12-08T11:55:49.856Z,16.20
2022-12-08T12:00:57.080Z,16.50
2022-12-08T12:06:46.499Z,16.17
2022-12-08T12:12:02.334Z,16.43
2022-12-08T12:17:28.019Z,15.80
2022-12-08T12:22:37.350Z,15.03
2022-12-08T12:27:46.624Z,15.50
2022-12-08T12:33:03.297Z,13.03
2022-12-08T12:38:40.697Z,12.63
2022-12-08T12:44:11.316Z,16.37
2022-12-08T12:49:46.885Z,14.20
2022-12-08T12:54:58.190Z,15.30
2022-12-08T13:00:11.089Z,16.10
2022-12-08T13:05:30.743Z,13.83
2022-12-08T13:10:42.140Z,12.97
2022-12-08T13:15:55.920Z,12.17
2022-12-08T13:26:21.504Z,11.30
2022-12-08T13:31:55.791Z,12.57
2022-12-08T13:37:19.089Z,13.63
2022-12-08T13:48:36.768Z,13.40
2022-12-08T13:54:45.767Z,13.20
2022-12-08T13:58:50.598Z,13.13
2022-12-08T14:04:34.211Z,13.17
2022-12-08T14:09:22.212Z,13.97
2022-12-08T14:15:01.822Z,13.40
2022-12-08T14:20:04.661Z,14.27
2022-12-08T14:25:17.895Z,13.50
2022-12-08T14:30:29.392Z,15.32
2022-12-08T14:35:42.865Z,16.80
2022-12-08T14:41:03.027Z,14.90
2022-12-08T14:46:27.790Z,15.87
2022-12-08T14:51:37.041Z,14.60
2022-12-08T14:56:58.443Z,14.43
2022-12-08T15:02:30.269Z,14.67
2022-12-08T15:13:20.154Z,15.73
2022-12-08T15:18:39.633Z,15.93
2022-12-08T15:23:53.463Z,17.40
2022-12-08T15:34:09.295Z,17.62
2022-12-08T15:39:37.873Z,16.40
2022-12-08T15:44:46.327Z,16.27
2022-12-08T15:49:57.129Z,16.07
2022-12-08T15:55:04.686Z,33.90
2022-12-08T16:00:43.775Z,34.90
2022-12-08T16:06:01.701Z,19.03
2022-12-08T16:11:23.845Z,19.77
2022-12-08T16:15:53.457Z,21.30
2022-12-08T16:26:24.051Z,21.13
2022-12-08T16:31:21.409Z,20.73
2022-12-08T16:36:24.666Z,21.33
2022-12-08T16:41:50.786Z,27.00
2022-12-08T16:47:00.463Z,18.10
2022-12-08T16:52:08.902Z,19.10
2022-12-08T16:57:17.257Z,24.90
2022-12-08T17:02:24.018Z,19.43
2022-12-08T17:07:32.617Z,17.13
2022-12-08T17:12:41.648Z,41.00
2022-12-08T17:17:50.196Z,31.77
2022-12-08T17:22:58.755Z,37.40
2022-12-08T17:28:06.138Z,32.67
2022-12-08T17:33:16.205Z,35.40
2022-12-08T17:38:27.535Z,37.50
2022-12-08T17:43:35.887Z,29.13
2022-12-08T17:48:43.293Z,23.03
2022-12-08T17:53:50.157Z,32.37
2022-12-08T17:58:59.663Z,25.87
2022-12-08T18:04:08.064Z,15.07
2022-12-08T18:09:16.419Z,17.80
2022-12-08T18:14:24.790Z,15.37
2022-12-08T18:19:31.520Z,16.53
2022-12-08T18:24:38.198Z,26.87
2022-12-08T18:29:44.877Z,17.30
2022-12-08T18:34:53.666Z,15.47
2022-12-08T18:40:00.317Z,17.60
2022-12-08T18:45:08.681Z,16.03
2022-12-08T18:50:15.426Z,16.30
2022-12-08T18:55:28.287Z,14.93
2022-12-08T19:00:34.859Z,15.43
2022-12-08T19:05:42.727Z,13.43
2022-12-08T19:10:49.788Z,16.37
2022-12-08T19:15:58.539Z,14.93
2022-12-08T19:21:05.880Z,13.50
2022-12-08T19:26:14.730Z,23.20
2022-12-08T19:31:21.928Z,21.43
2022-12-08T19:36:32.865Z,13.20
2022-12-08T19:41:59.607Z,15.57
2022-12-08T19:47:08.890Z,22.97
2022-12-08T19:52:18.813Z,18.93
2022-12-08T19:57:28.198Z,24.73
2022-12-08T20:02:37.010Z,16.37
2022-12-08T20:07:50.195Z,38.70
2022-12-08T20:12:59.518Z,28.10
2022-12-08T20:18:07.017Z,18.20
2022-12-08T20:23:14.976Z,33.03
2022-12-08T20:28:23.434Z,20.47
2022-12-08T20:33:30.372Z,15.60
2022-12-08T20:38:38.950Z,13.67
2022-12-08T20:43:49.946Z,21.30
2022-12-08T20:49:02.143Z,19.63
2022-12-08T20:54:10.242Z,16.77
2022-12-08T20:59:19.176Z,24.20
2022-12-08T21:04:28.264Z,28.07
2022-12-08T21:09:35.439Z,24.40
2022-12-08T21:14:44.146Z,34.27
2022-12-08T21:19:51.384Z,24.50
2022-12-08T21:24:58.887Z,23.77
2022-12-08T21:30:10.829Z,20.10
2022-12-08T21:35:19.534Z,17.30
2022-12-08T21:40:27.395Z,26.43
2022-12-08T21:45:38.087Z,16.97
2022-12-08T21:50:45.091Z,15.83
2022-12-08T21:55:56.807Z,14.57
2022-12-08T22:01:09.323Z,20.90
2022-12-08T22:06:17.099Z,16.43
2022-12-08T22:11:24.566Z,26.70
2022-12-08T22:16:31.888Z,19.90
2022-12-08T22:21:39.556Z,12.77
2022-12-08T22:26:46.773Z,15.07
2022-12-08T22:31:54.139Z,17.50
2022-12-08T22:37:03.069Z,18.67
2022-12-08T22:42:09.946Z,18.63
2022-12-08T22:47:16.913Z,24.77
2022-12-08T22:52:23.690Z,24.97
2022-12-08T22:57:34.308Z,20.00
2022-12-08T23:02:41.211Z,30.77
2022-12-08T23:07:48.036Z,27.83
2022-12-08T23:13:02.196Z,26.47
2022-12-08T23:18:06.290Z,36.60
2022-12-08T23:23:13.338Z,22.97
2022-12-08T23:28:20.487Z,19.80
2022-12-08T23:33:31.509Z,13.40
2022-12-08T23:38:36.265Z,15.97
2022-12-08T23:44:07.544Z,20.17
2022-12-08T23:49:00.426Z,19.97
2022-12-08T23:54:11.127Z,23.50
2022-12-08T23:59:21.290Z,14.57
